sensor_id;sensor_type;location;lat;lon;timestamp;temperature;humidity
76750;DHT22;66447;35.844;14.468;2023-11-19T00:08:19;19.46;-6.00
76750;DHT22;66447;35.844;14.468;2023-11-19T00:23:20;19.62;-6.00
76750;DHT22;66447;35.844;14.468;2023-11-19T00:38:21;19.50;-6.00
76750;DHT22;66447;35.844;14.468;2023-11-19T00:53:22;19.25;-6.00
76750;DHT22;66447;35.844;14.468;2023-11-19T01:08:23;19.82;-6.00
76750;DHT22;66447;35.844;14.468;2023-11-19T01:23:25;19.61;-6.00
76750;DHT22;66447;35.844;14.468;2023-11-19T01:38:26;19.63;-6.00
76750;DHT22;66447;35.844;14.468;2023-11-19T01:53:27;19.94;-6.00
76750;DHT22;66447;35.844;14.468;2023-11-19T02:08:29;19.98;-6.00
76750;DHT22;66447;35.844;14.468;2023-11-19T02:23:30;20.35;-6.00
76750;DHT22;66447;35.844;14.468;2023-11-19T02:38:31;20.49;-6.00
76750;DHT22;66447;35.844;14.468;2023-11-19T02:53:32;19.99;-6.00
76750;DHT22;66447;35.844;14.468;2023-11-19T03:08:34;19.80;-6.00
76750;DHT22;66447;35.844;14.468;2023-11-19T03:23:36;20.31;-6.00
76750;DHT22;66447;35.844;14.468;2023-11-19T03:38:37;20.04;-6.00
76750;DHT22;66447;35.844;14.468;2023-11-19T03:53:38;19.79;-6.00
76750;DHT22;66447;35.844;14.468;2023-11-19T04:08:39;19.66;-6.00
76750;DHT22;66447;35.844;14.468;2023-11-19T04:23:40;19.99;-6.00
76750;DHT22;66447;35.844;14.468;2023-11-19T04:38:41;18.19;-6.00
76750;DHT22;66447;35.844;14.468;2023-11-19T04:53:42;18.82;-6.00
76750;DHT22;66447;35.844;14.468;2023-11-19T05:08:42;19.80;-6.00
76750;DHT22;66447;35.844;14.468;2023-11-19T05:23:43;18.67;-6.00
76750;DHT22;66447;35.844;14.468;2023-11-19T05:38:44;19.07;-6.00
76750;DHT22;66447;35.844;14.468;2023-11-19T05:53:45;19.80;-6.00
76750;DHT22;66447;35.844;14.468;2023-11-19T06:08:46;20.10;-6.00
76750;DHT22;66447;35.844;14.468;2023-11-19T06:23:47;21.07;-6.00
76750;DHT22;66447;35.844;14.468;2023-11-19T06:38:49;21.65;-6.00
76750;DHT22;66447;35.844;14.468;2023-11-19T06:53:50;21.21;-6.00
76750;DHT22;66447;35.844;14.468;2023-11-19T07:08:51;21.64;-6.00
76750;DHT22;66447;35.844;14.468;2023-11-19T07:23:52;20.93;-6.00
76750;DHT22;66447;35.844;14.468;2023-11-19T07:38:53;21.24;-6.00
76750;DHT22;66447;35.844;14.468;2023-11-19T07:53:58;23.60;-6.00
76750;DHT22;66447;35.844;14.468;2023-11-19T08:08:59;24.21;-6.00
76750;DHT22;66447;35.844;14.468;2023-11-19T08:24:00;23.79;-6.00
76750;DHT22;66447;35.844;14.468;2023-11-19T08:39:01;24.91;-6.00
76750;DHT22;66447;35.844;14.468;2023-11-19T08:54:02;23.87;-6.00
76750;DHT22;66447;35.844;14.468;2023-11-19T09:09:03;23.50;-6.00
76750;DHT22;66447;35.844;14.468;2023-11-19T09:24:06;25.10;-6.00
76750;DHT22;66447;35.844;14.468;2023-11-19T09:39:11;25.49;-6.00
76750;DHT22;66447;35.844;14.468;2023-11-19T09:54:15;26.84;-6.00
76750;DHT22;66447;35.844;14.468;2023-11-19T10:09:17;26.43;-6.00
76750;DHT22;66447;35.844;14.468;2023-11-19T10:24:31;25.80;-6.00
76750;DHT22;66447;35.844;14.468;2023-11-19T10:39:54;26.80;-6.00
76750;DHT22;66447;35.844;14.468;2023-11-19T10:54:56;24.88;-6.00
76750;DHT22;66447;35.844;14.468;2023-11-19T11:10:01;27.22;-6.00
76750;DHT22;66447;35.844;14.468;2023-11-19T11:25:23;23.76;-6.00
76750;DHT22;66447;35.844;14.468;2023-11-19T11:40:29;25.19;-6.00
76750;DHT22;66447;35.844;14.468;2023-11-19T12:10:51;26.68;-6.00
76750;DHT22;66447;35.844;14.468;2023-11-19T12:25:55;25.37;-6.00
76750;DHT22;66447;35.844;14.468;2023-11-19T12:56:08;26.20;-6.00
76750;DHT22;66447;35.844;14.468;2023-11-19T13:11:09;25.50;-6.00
76750;DHT22;66447;35.844;14.468;2023-11-19T13:26:11;25.61;-6.00
76750;DHT22;66447;35.844;14.468;2023-11-19T13:41:12;25.00;-6.00
76750;DHT22;66447;35.844;14.468;2023-11-19T13:56:14;25.44;-6.00
76750;DHT22;66447;35.844;14.468;2023-11-19T14:11:15;24.33;-6.00
76750;DHT22;66447;35.844;14.468;2023-11-19T14:26:16;24.77;-6.00
76750;DHT22;66447;35.844;14.468;2023-11-19T14:41:17;25.72;-6.00
76750;DHT22;66447;35.844;14.468;2023-11-19T14:56:18;24.45;-6.00
76750;DHT22;66447;35.844;14.468;2023-11-19T15:11:19;23.41;-6.00
76750;DHT22;66447;35.844;14.468;2023-11-19T15:26:20;23.15;-6.00
76750;DHT22;66447;35.844;14.468;2023-11-19T15:41:22;23.92;-6.00
76750;DHT22;66447;35.844;14.468;2023-11-19T15:56:23;24.49;-6.00
76750;DHT22;66447;35.844;14.468;2023-11-19T16:11:24;23.03;-6.00
76750;DHT22;66447;35.844;14.468;2023-11-19T16:26:25;23.58;-6.00
76750;DHT22;66447;35.844;14.468;2023-11-19T16:41:27;23.55;-6.00
76750;DHT22;66447;35.844;14.468;2023-11-19T16:56:28;22.93;-6.00
76750;DHT22;66447;35.844;14.468;2023-11-19T17:11:33;22.92;-6.00
76750;DHT22;66447;35.844;14.468;2023-11-19T17:26:35;23.88;-6.00
76750;DHT22;66447;35.844;14.468;2023-11-19T17:41:36;22.06;13.42
76750;DHT22;66447;35.844;14.468;2023-11-19T17:56:39;22.49;11.43
76750;DHT22;66447;35.844;14.468;2023-11-19T18:11:40;22.67;16.85
76750;DHT22;66447;35.844;14.468;2023-11-19T18:26:40;22.97;5.70
76750;DHT22;66447;35.844;14.468;2023-11-19T18:41:41;23.05;11.71
76750;DHT22;66447;35.844;14.468;2023-11-19T18:56:42;22.72;24.58
76750;DHT22;66447;35.844;14.468;2023-11-19T19:11:43;22.50;41.14
76750;DHT22;66447;35.844;14.468;2023-11-19T19:26:44;23.25;24.24
76750;DHT22;66447;35.844;14.468;2023-11-19T19:41:45;22.73;34.63
76750;DHT22;66447;35.844;14.468;2023-11-19T19:56:46;24.41;5.83
76750;DHT22;66447;35.844;14.468;2023-11-19T20:11:47;24.46;25.35
76750;DHT22;66447;35.844;14.468;2023-11-19T20:26:49;23.71;76.04
76750;DHT22;66447;35.844;14.468;2023-11-19T20:41:54;23.02;96.38
76750;DHT22;66447;35.844;14.468;2023-11-19T20:56:55;24.78;39.52
76750;DHT22;66447;35.844;14.468;2023-11-19T21:11:56;24.26;44.63
76750;DHT22;66447;35.844;14.468;2023-11-19T21:26:57;24.33;68.50
76750;DHT22;66447;35.844;14.468;2023-11-19T21:41:58;23.50;101.86
76750;DHT22;66447;35.844;14.468;2023-11-19T21:56:59;23.18;99.24
76750;DHT22;66447;35.844;14.468;2023-11-19T22:12:00;22.88;111.77
76750;DHT22;66447;35.844;14.468;2023-11-19T22:27:00;22.85;104.45
76750;DHT22;66447;35.844;14.468;2023-11-19T22:42:01;22.84;96.92
76750;DHT22;66447;35.844;14.468;2023-11-19T22:57:02;22.80;105.37
76750;DHT22;66447;35.844;14.468;2023-11-19T23:12:04;23.95;75.67
76750;DHT22;66447;35.844;14.468;2023-11-19T23:27:05;22.99;108.08
76750;DHT22;66447;35.844;14.468;2023-11-19T23:42:06;22.49;118.99
76750;DHT22;66447;35.844;14.468;2023-11-19T23:57:07;22.80;118.99
